createdAt,value
2023-10-08T00:00:54.978Z,18.76
2023-10-08T00:03:26.173Z,18.97
2023-10-08T00:05:52.723Z,19.17
2023-10-08T00:08:19.185Z,19.22
2023-10-08T00:10:46.333Z,19.25
2023-10-08T00:13:13.860Z,19.26
2023-10-08T00:15:53.054Z,18.81
2023-10-08T00:18:24.098Z,18.55
2023-10-08T00:21:07.607Z,18.46
2023-10-08T00:23:36.157Z,18.08
2023-10-08T00:26:05.903Z,18.50
2023-10-08T00:28:32.773Z,18.60
2023-10-08T00:31:06.754Z,18.15
2023-10-08T00:33:33.323Z,18.53
2023-10-08T00:35:59.705Z,18.74
2023-10-08T00:38:33.222Z,18.87
2023-10-08T00:41:01.200Z,18.83
2023-10-08T00:43:35.804Z,18.99
2023-10-08T00:46:10.054Z,19.00
2023-10-08T00:48:37.709Z,19.13
2023-10-08T00:51:25.864Z,19.06
2023-10-08T00:53:59.944Z,18.97
2023-10-08T00:56:45.138Z,18.72
2023-10-08T00:59:14.697Z,18.76
2023-10-08T01:01:41.789Z,18.48
2023-10-08T01:04:13.153Z,18.71
2023-10-08T01:06:41.033Z,18.78
2023-10-08T01:09:19.196Z,18.64
2023-10-08T01:11:51.450Z,18.70
2023-10-08T01:14:22.109Z,18.75
2023-10-08T01:16:48.827Z,18.59
2023-10-08T01:19:21.550Z,18.12
2023-10-08T01:21:48.039Z,18.28
2023-10-08T01:24:18.352Z,18.42
2023-10-08T01:26:46.274Z,18.41
2023-10-08T01:29:22.521Z,18.49
2023-10-08T01:31:50.042Z,18.65
2023-10-08T01:34:18.559Z,18.71
2023-10-08T01:36:47.690Z,18.52
2023-10-08T01:39:18.138Z,18.47
2023-10-08T01:41:45.965Z,18.37
2023-10-08T01:44:13.060Z,18.19
2023-10-08T01:46:41.864Z,17.81
2023-10-08T01:49:15.839Z,17.73
2023-10-08T01:51:48.259Z,17.64
2023-10-08T01:54:16.068Z,18.11
2023-10-08T01:56:43.445Z,17.54
2023-10-08T01:59:11.409Z,17.75
2023-10-08T02:01:39.428Z,17.17
2023-10-08T02:04:08.544Z,17.37
2023-10-08T02:06:35.440Z,18.04
2023-10-08T02:09:08.819Z,18.21
2023-10-08T02:11:51.973Z,18.22
2023-10-08T02:14:19.631Z,18.14
2023-10-08T02:16:46.183Z,18.11
2023-10-08T02:19:12.857Z,18.17
2023-10-08T02:21:40.868Z,18.26
2023-10-08T02:24:09.508Z,17.97
2023-10-08T02:26:35.985Z,17.99
2023-10-08T02:29:02.653Z,18.21
2023-10-08T02:31:29.199Z,18.01
2023-10-08T02:33:55.705Z,17.91
2023-10-08T02:36:22.084Z,17.41
2023-10-08T02:38:48.719Z,17.51
2023-10-08T02:41:18.437Z,17.33
2023-10-08T02:43:45.983Z,17.36
2023-10-08T02:46:16.558Z,17.84
2023-10-08T02:48:43.122Z,17.97
2023-10-08T02:51:15.664Z,17.87
2023-10-08T02:53:45.490Z,17.92
2023-10-08T02:56:15.279Z,17.82
2023-10-08T02:58:41.866Z,18.03
2023-10-08T03:01:13.243Z,17.77
2023-10-08T03:03:47.831Z,17.96
2023-10-08T03:06:15.957Z,17.94
2023-10-08T03:08:42.958Z,18.05
2023-10-08T03:11:17.837Z,18.05
2023-10-08T03:13:47.611Z,17.95
2023-10-08T03:16:14.959Z,17.83
2023-10-08T03:18:46.322Z,17.41
2023-10-08T03:21:24.748Z,17.35
2023-10-08T03:23:52.082Z,17.47
2023-10-08T03:26:34.710Z,17.61
2023-10-08T03:29:06.835Z,17.82
2023-10-08T03:31:50.905Z,17.05
2023-10-08T03:34:28.099Z,17.47
2023-10-08T03:37:00.757Z,16.96
2023-10-08T03:39:47.113Z,17.48
2023-10-08T03:42:21.082Z,17.48
2023-10-08T03:44:52.044Z,17.75
2023-10-08T03:47:20.168Z,17.94
2023-10-08T03:49:47.214Z,17.72
2023-10-08T03:52:16.778Z,17.26
2023-10-08T03:55:07.884Z,17.61
2023-10-08T03:57:43.438Z,17.88
2023-10-08T04:00:15.525Z,17.70
2023-10-08T04:02:42.800Z,18.05
2023-10-08T04:05:22.521Z,17.79
2023-10-08T04:08:00.731Z,17.85
2023-10-08T04:10:50.536Z,17.71
2023-10-08T04:13:17.584Z,17.68
2023-10-08T04:15:44.056Z,17.70
2023-10-08T04:18:11.956Z,17.75
2023-10-08T04:20:38.727Z,17.95
2023-10-08T04:23:19.447Z,17.68
2023-10-08T04:25:46.006Z,17.36
2023-10-08T04:28:15.413Z,17.31
2023-10-08T04:30:42.739Z,17.52
2023-10-08T04:33:13.833Z,17.64
2023-10-08T04:35:57.868Z,17.75
2023-10-08T04:38:29.629Z,17.68
2023-10-08T04:40:56.961Z,17.51
2023-10-08T04:43:32.056Z,17.29
2023-10-08T04:46:00.087Z,17.27
2023-10-08T04:48:30.819Z,16.89
2023-10-08T04:51:00.315Z,17.31
2023-10-08T04:53:32.914Z,17.62
2023-10-08T04:56:06.512Z,17.73
2023-10-08T04:58:37.032Z,17.79
2023-10-08T05:01:21.638Z,17.57
2023-10-08T05:04:08.437Z,17.40
2023-10-08T05:06:36.029Z,17.67
2023-10-08T05:09:21.878Z,17.70
2023-10-08T05:11:53.428Z,17.54
2023-10-08T05:14:35.926Z,17.45
2023-10-08T05:17:19.312Z,17.41
2023-10-08T05:20:04.118Z,17.53
2023-10-08T05:22:30.460Z,17.07
2023-10-08T05:25:16.412Z,16.87
2023-10-08T05:27:49.745Z,17.38
2023-10-08T05:30:43.677Z,17.51
2023-10-08T05:33:48.475Z,17.01
2023-10-08T05:36:20.233Z,16.41
2023-10-08T05:38:50.584Z,16.54
2023-10-08T05:41:29.357Z,16.76
2023-10-08T05:44:14.468Z,16.50
2023-10-08T05:46:50.367Z,16.93
2023-10-08T05:49:27.196Z,17.40
2023-10-08T05:51:53.549Z,17.50
2023-10-08T05:54:31.050Z,17.09
2023-10-08T05:57:11.441Z,17.30
2023-10-08T05:59:57.056Z,17.42
2023-10-08T06:02:39.479Z,17.39
2023-10-08T06:05:10.781Z,16.99
2023-10-08T06:08:07.437Z,17.30
2023-10-08T06:10:34.412Z,17.37
2023-10-08T06:13:07.376Z,17.28
2023-10-08T06:15:57.548Z,17.53
2023-10-08T06:18:29.926Z,17.50
2023-10-08T06:21:01.538Z,17.63
2023-10-08T06:23:30.182Z,17.53
2023-10-08T06:25:59.874Z,17.53
2023-10-08T06:28:27.693Z,17.52
2023-10-08T06:30:57.551Z,17.59
2023-10-08T06:33:34.623Z,17.55
2023-10-08T06:36:04.631Z,17.55
2023-10-08T06:38:32.162Z,17.72
2023-10-08T06:41:01.141Z,17.83
2023-10-08T06:43:29.218Z,17.30
2023-10-08T06:45:59.446Z,17.44
2023-10-08T06:48:26.386Z,17.01
2023-10-08T06:51:14.372Z,17.28
2023-10-08T06:53:41.778Z,16.63
2023-10-08T06:56:10.945Z,16.64
2023-10-08T06:58:37.476Z,16.71
2023-10-08T07:01:06.073Z,16.68
2023-10-08T07:03:34.954Z,17.24
2023-10-08T07:06:03.678Z,16.97
2023-10-08T07:08:32.949Z,16.73
2023-10-08T07:11:02.638Z,17.35
2023-10-08T07:13:30.570Z,17.52
2023-10-08T07:15:58.246Z,17.67
2023-10-08T07:18:27.493Z,18.06
2023-10-08T07:20:55.611Z,18.00
2023-10-08T07:23:26.395Z,18.31
2023-10-08T07:25:54.155Z,18.42
2023-10-08T07:28:20.990Z,18.28
2023-10-08T07:30:48.971Z,17.95
2023-10-08T07:33:26.107Z,17.98
2023-10-08T07:35:58.238Z,17.33
2023-10-08T07:38:31.141Z,17.23
2023-10-08T07:40:57.678Z,17.28
2023-10-08T07:43:24.317Z,17.48
2023-10-08T07:45:50.767Z,17.38
2023-10-08T07:48:17.309Z,17.44
2023-10-08T07:50:46.949Z,17.83
2023-10-08T07:53:20.314Z,17.86
2023-10-08T07:55:48.152Z,18.16
2023-10-08T07:58:19.525Z,18.02
2023-10-08T08:01:01.874Z,18.30
2023-10-08T08:03:28.347Z,18.90
2023-10-08T08:05:55.027Z,19.29
2023-10-08T08:08:22.840Z,18.71
2023-10-08T08:10:50.014Z,19.42
2023-10-08T08:13:21.205Z,19.24
2023-10-08T08:15:52.942Z,19.16
2023-10-08T08:18:23.715Z,19.49
2023-10-08T08:20:50.572Z,19.27
2023-10-08T08:23:17.599Z,19.74
2023-10-08T08:25:56.332Z,19.94
2023-10-08T08:28:25.743Z,20.10
2023-10-08T08:30:54.005Z,20.25
2023-10-08T08:33:24.308Z,19.98
2023-10-08T08:36:01.628Z,20.08
2023-10-08T08:38:33.332Z,20.34
2023-10-08T08:41:07.906Z,20.40
2023-10-08T08:43:38.037Z,20.10
2023-10-08T08:46:08.316Z,20.37
2023-10-08T08:48:37.435Z,20.51
2023-10-08T08:51:04.249Z,20.41
2023-10-08T08:53:30.712Z,20.31
2023-10-08T08:55:57.598Z,19.72
2023-10-08T08:58:26.182Z,19.79
2023-10-08T09:00:53.955Z,19.77
2023-10-08T09:03:20.821Z,20.02
2023-10-08T09:05:52.087Z,20.10
2023-10-08T09:08:20.179Z,20.24
2023-10-08T09:10:53.112Z,19.77
2023-10-08T09:13:24.100Z,20.01
2023-10-08T09:15:53.429Z,20.35
2023-10-08T09:18:22.551Z,20.55
2023-10-08T09:20:49.376Z,20.64
2023-10-08T09:23:22.902Z,20.20
2023-10-08T09:25:54.413Z,20.60
2023-10-08T09:28:22.759Z,20.72
2023-10-08T09:30:50.029Z,20.54
2023-10-08T09:33:19.437Z,21.05
2023-10-08T09:35:47.314Z,21.08
2023-10-08T09:38:13.792Z,20.93
2023-10-08T09:40:47.630Z,21.39
2023-10-08T09:43:16.838Z,21.50
2023-10-08T09:45:48.071Z,21.18
2023-10-08T09:48:17.571Z,21.44
2023-10-08T09:50:46.430Z,20.91
2023-10-08T09:53:17.765Z,21.35
2023-10-08T09:55:55.288Z,21.37
2023-10-08T09:58:26.445Z,21.97
2023-10-08T10:00:58.201Z,21.93
2023-10-08T10:03:27.220Z,22.27
2023-10-08T10:05:59.452Z,21.78
2023-10-08T10:08:28.106Z,21.55
2023-10-08T10:11:01.322Z,22.35
2023-10-08T10:13:42.463Z,22.05
2023-10-08T10:16:11.137Z,22.46
2023-10-08T10:18:37.641Z,22.52
2023-10-08T10:21:13.610Z,22.30
2023-10-08T10:23:45.554Z,22.22
2023-10-08T10:26:32.020Z,22.11
2023-10-08T10:29:16.682Z,22.22
2023-10-08T10:31:48.288Z,22.49
2023-10-08T10:34:18.912Z,22.63
2023-10-08T10:36:50.417Z,22.19
2023-10-08T10:39:27.125Z,22.72
2023-10-08T10:41:58.835Z,22.51
2023-10-08T10:44:26.228Z,22.60
2023-10-08T10:47:13.504Z,22.82
2023-10-08T10:49:50.326Z,22.59
2023-10-08T10:52:19.113Z,23.27
2023-10-08T10:54:59.140Z,23.45
2023-10-08T10:57:35.692Z,23.46
2023-10-08T11:00:25.824Z,23.43
2023-10-08T11:02:52.537Z,23.81
2023-10-08T11:05:29.505Z,24.09
2023-10-08T11:08:05.596Z,23.54
2023-10-08T11:10:33.461Z,24.02
2023-10-08T11:13:02.243Z,24.03
2023-10-08T11:15:41.308Z,24.18
2023-10-08T11:18:13.585Z,24.22
2023-10-08T11:20:45.486Z,24.13
2023-10-08T11:23:34.117Z,24.53
2023-10-08T11:26:05.358Z,24.77
2023-10-08T11:28:43.606Z,24.72
2023-10-08T11:31:14.612Z,24.52
2023-10-08T11:33:57.675Z,24.45
2023-10-08T11:36:31.792Z,24.73
2023-10-08T11:39:10.962Z,24.95
2023-10-08T11:41:50.948Z,25.33
2023-10-08T11:44:20.721Z,24.75
2023-10-08T11:46:52.553Z,24.19
2023-10-08T11:49:20.040Z,24.63
2023-10-08T11:51:47.411Z,25.20
2023-10-08T11:54:15.818Z,25.46
2023-10-08T11:56:43.080Z,25.11
2023-10-08T11:59:13.218Z,25.00
2023-10-08T12:01:43.300Z,25.35
2023-10-08T12:04:14.344Z,25.69
2023-10-08T12:06:47.857Z,25.11
2023-10-08T12:09:15.491Z,25.37
2023-10-08T12:11:41.938Z,24.83
2023-10-08T12:14:08.383Z,25.37
2023-10-08T12:16:39.893Z,25.41
2023-10-08T12:19:16.542Z,25.10
2023-10-08T12:21:47.226Z,25.54
2023-10-08T12:24:14.040Z,24.28
2023-10-08T12:26:46.815Z,25.34
2023-10-08T12:29:20.791Z,25.10
2023-10-08T12:31:48.703Z,24.32
2023-10-08T12:34:16.133Z,24.54
2023-10-08T12:36:43.346Z,23.98
2023-10-08T12:39:16.292Z,23.72
2023-10-08T12:41:45.042Z,23.93
2023-10-08T12:44:12.492Z,23.97
2023-10-08T12:46:39.176Z,23.83
2023-10-08T12:49:05.609Z,23.92
2023-10-08T12:51:36.582Z,23.79
2023-10-08T12:54:12.268Z,23.85
2023-10-08T12:56:45.672Z,23.82
2023-10-08T12:59:21.375Z,23.68
2023-10-08T13:01:52.244Z,23.39
2023-10-08T13:04:27.101Z,23.56
2023-10-08T13:06:58.716Z,23.50
2023-10-08T13:09:26.056Z,23.42
2023-10-08T13:11:52.791Z,23.76
2023-10-08T13:14:19.290Z,23.46
2023-10-08T13:16:46.468Z,23.43
2023-10-08T13:19:13.013Z,23.48
2023-10-08T13:21:39.507Z,23.29
2023-10-08T13:24:09.754Z,23.12
2023-10-08T13:26:39.426Z,23.20
2023-10-08T13:29:10.555Z,23.38
2023-10-08T13:31:37.509Z,23.27
2023-10-08T13:34:09.356Z,23.58
2023-10-08T13:36:38.841Z,23.26
2023-10-08T13:39:10.689Z,23.40
2023-10-08T13:41:42.834Z,23.49
2023-10-08T13:44:09.591Z,23.61
2023-10-08T13:46:37.417Z,23.32
2023-10-08T13:49:06.858Z,23.40
2023-10-08T13:51:36.042Z,23.21
2023-10-08T13:54:04.232Z,23.55
2023-10-08T13:56:32.401Z,23.58
2023-10-08T13:59:15.502Z,23.54
2023-10-08T14:01:53.907Z,23.43
2023-10-08T14:04:21.496Z,23.66
2023-10-08T14:06:55.928Z,23.53
2023-10-08T14:09:23.532Z,23.48
2023-10-08T14:11:54.131Z,23.40
2023-10-08T14:14:24.983Z,23.33
2023-10-08T14:16:55.399Z,23.20
2023-10-08T14:19:29.631Z,23.09
2023-10-08T14:22:01.471Z,23.28
2023-10-08T14:24:32.418Z,23.51
2023-10-08T14:27:03.915Z,23.85
2023-10-08T14:29:31.047Z,23.53
2023-10-08T14:31:57.966Z,23.75
2023-10-08T14:34:51.161Z,23.52
2023-10-08T14:37:36.337Z,23.90
2023-10-08T14:40:22.338Z,23.71
2023-10-08T14:43:02.672Z,23.55
2023-10-08T14:45:32.521Z,23.61
2023-10-08T14:47:59.816Z,23.66
2023-10-08T14:50:34.433Z,23.76
2023-10-08T14:53:02.102Z,23.60
2023-10-08T14:55:28.885Z,23.55
2023-10-08T14:57:55.608Z,23.36
2023-10-08T15:00:25.885Z,23.10
2023-10-08T15:02:56.101Z,23.36
2023-10-08T15:05:25.418Z,23.46
2023-10-08T15:07:53.004Z,23.55
2023-10-08T15:10:20.513Z,23.56
2023-10-08T15:12:48.750Z,23.33
2023-10-08T15:15:16.266Z,23.53
2023-10-08T15:17:44.421Z,23.18
2023-10-08T15:20:18.361Z,23.36
2023-10-08T15:22:45.837Z,23.41
2023-10-08T15:25:13.954Z,22.98
2023-10-08T15:27:44.792Z,23.21
2023-10-08T15:30:16.661Z,22.96
2023-10-08T15:32:45.452Z,23.34
2023-10-08T15:35:16.797Z,22.99
2023-10-08T15:37:43.895Z,22.92
2023-10-08T15:40:18.634Z,22.97
2023-10-08T15:43:05.009Z,22.71
2023-10-08T15:45:31.442Z,22.84
2023-10-08T15:47:58.196Z,23.20
2023-10-08T15:50:26.910Z,23.09
2023-10-08T15:52:55.015Z,22.69
2023-10-08T15:55:23.261Z,22.95
2023-10-08T15:57:50.666Z,22.67
2023-10-08T16:00:19.136Z,22.81
2023-10-08T16:02:46.964Z,22.60
2023-10-08T16:05:15.576Z,22.69
2023-10-08T16:07:41.994Z,23.03
2023-10-08T16:10:08.949Z,22.88
2023-10-08T16:12:37.289Z,22.63
2023-10-08T16:15:05.586Z,22.83
2023-10-08T16:17:32.597Z,22.85
2023-10-08T16:19:59.338Z,22.76
2023-10-08T16:22:25.751Z,22.77
2023-10-08T16:24:52.576Z,22.69
2023-10-08T16:27:20.322Z,22.67
2023-10-08T16:29:46.988Z,22.69
2023-10-08T16:32:13.458Z,22.57
2023-10-08T16:34:39.832Z,22.43
2023-10-08T16:37:07.143Z,22.35
2023-10-08T16:39:33.543Z,22.39
2023-10-08T16:42:00.139Z,22.41
2023-10-08T16:44:27.141Z,22.33
2023-10-08T16:46:53.637Z,22.25
2023-10-08T16:49:22.048Z,22.05
2023-10-08T16:51:48.672Z,21.83
2023-10-08T16:54:16.518Z,21.78
2023-10-08T16:56:44.730Z,21.84
2023-10-08T16:59:15.196Z,21.72
2023-10-08T17:01:43.472Z,21.83
2023-10-08T17:04:10.098Z,21.83
2023-10-08T17:06:36.652Z,21.78
2023-10-08T17:09:07.388Z,21.67
2023-10-08T17:11:36.143Z,21.53
2023-10-08T17:14:02.514Z,21.45
2023-10-08T17:16:29.032Z,21.37
2023-10-08T17:18:55.489Z,21.36
2023-10-08T17:21:23.543Z,21.33
2023-10-08T17:23:49.942Z,21.44
2023-10-08T17:26:17.490Z,21.36
2023-10-08T17:28:43.833Z,21.17
2023-10-08T17:31:12.002Z,21.12
2023-10-08T17:33:39.852Z,21.05
2023-10-08T17:36:07.331Z,20.94
2023-10-08T17:38:34.377Z,20.94
2023-10-08T17:41:02.164Z,21.00
2023-10-08T17:43:30.550Z,20.89
2023-10-08T17:45:56.930Z,20.99
2023-10-08T17:48:25.264Z,20.88
2023-10-08T17:50:51.792Z,20.79
2023-10-08T17:53:20.408Z,20.72
2023-10-08T17:55:47.887Z,20.74
2023-10-08T17:58:17.152Z,20.94
2023-10-08T18:00:44.831Z,20.57
2023-10-08T18:03:12.117Z,20.74
2023-10-08T18:05:40.167Z,20.88
2023-10-08T18:08:07.578Z,20.85
2023-10-08T18:10:36.793Z,20.87
2023-10-08T18:13:03.506Z,20.75
2023-10-08T18:15:33.366Z,20.82
2023-10-08T18:17:59.979Z,20.68
2023-10-08T18:20:36.746Z,20.59
2023-10-08T18:23:03.972Z,20.94
2023-10-08T18:25:33.200Z,20.78
2023-10-08T18:28:00.154Z,20.54
2023-10-08T18:30:27.139Z,20.29
2023-10-08T18:32:55.420Z,20.51
2023-10-08T18:35:22.820Z,20.53
2023-10-08T18:37:50.932Z,20.56
2023-10-08T18:40:17.515Z,20.51
2023-10-08T18:42:46.761Z,20.21
2023-10-08T18:45:15.783Z,19.94
2023-10-08T18:47:42.516Z,20.30
2023-10-08T18:50:15.718Z,19.89
2023-10-08T18:52:43.352Z,19.75
2023-10-08T18:55:10.127Z,20.26
2023-10-08T18:57:37.251Z,20.47
2023-10-08T19:00:10.737Z,20.05
2023-10-08T19:02:39.622Z,20.15
2023-10-08T19:05:06.994Z,20.25
2023-10-08T19:07:34.668Z,20.15
2023-10-08T19:10:05.747Z,20.07
2023-10-08T19:12:33.298Z,20.05
2023-10-08T19:15:00.561Z,19.81
2023-10-08T19:17:30.795Z,19.95
2023-10-08T19:19:57.886Z,20.04
2023-10-08T19:22:24.406Z,20.01
2023-10-08T19:24:53.974Z,19.97
2023-10-08T19:27:20.469Z,19.76
2023-10-08T19:29:47.037Z,19.69
2023-10-08T19:32:13.978Z,19.63
2023-10-08T19:34:40.349Z,19.58
2023-10-08T19:37:07.409Z,19.67
2023-10-08T19:39:33.919Z,19.62
2023-10-08T19:42:00.390Z,19.90
2023-10-08T19:44:26.805Z,19.86
2023-10-08T19:46:53.242Z,19.75
2023-10-08T19:49:22.469Z,19.46
2023-10-08T19:51:49.866Z,19.55
2023-10-08T19:54:16.321Z,19.60
2023-10-08T19:56:43.159Z,19.77
2023-10-08T19:59:12.417Z,19.50
2023-10-08T20:01:39.974Z,19.49
2023-10-08T20:04:07.611Z,19.28
2023-10-08T20:06:37.948Z,19.47
2023-10-08T20:09:07.520Z,19.52
2023-10-08T20:11:35.160Z,19.49
2023-10-08T20:14:02.214Z,19.44
2023-10-08T20:16:31.053Z,19.41
2023-10-08T20:18:57.862Z,19.34
2023-10-08T20:21:24.282Z,18.98
2023-10-08T20:23:51.750Z,19.19
2023-10-08T20:26:22.054Z,18.94
2023-10-08T20:28:52.325Z,18.85
2023-10-08T20:31:18.905Z,18.98
2023-10-08T20:33:45.618Z,18.52
2023-10-08T20:36:12.369Z,18.65
2023-10-08T20:38:39.197Z,18.58
2023-10-08T20:41:08.161Z,18.60
2023-10-08T20:43:35.252Z,18.89
2023-10-08T20:46:01.761Z,19.02
2023-10-08T20:48:28.987Z,18.74
2023-10-08T20:50:57.910Z,18.63
2023-10-08T20:53:25.815Z,18.65
2023-10-08T20:55:53.528Z,18.89
2023-10-08T20:58:26.113Z,18.92
2023-10-08T21:00:56.647Z,18.86
2023-10-08T21:03:23.135Z,18.82
2023-10-08T21:05:49.646Z,18.80
2023-10-08T21:08:16.462Z,18.32
2023-10-08T21:10:59.983Z,18.65
2023-10-08T21:13:28.106Z,18.89
2023-10-08T21:15:55.974Z,18.94
2023-10-08T21:18:24.306Z,18.99
2023-10-08T21:20:51.221Z,18.70
2023-10-08T21:23:17.679Z,18.58
2023-10-08T21:25:45.882Z,18.09
2023-10-08T21:28:12.394Z,17.75
2023-10-08T21:30:38.800Z,17.79
2023-10-08T21:33:09.694Z,17.49
2023-10-08T21:35:36.776Z,17.79
2023-10-08T21:38:03.670Z,17.71
2023-10-08T21:40:30.368Z,17.78
2023-10-08T21:42:58.405Z,17.53
2023-10-08T21:45:24.920Z,17.79
2023-10-08T21:47:51.485Z,17.73
2023-10-08T21:50:19.484Z,18.22
2023-10-08T21:52:49.692Z,18.12
2023-10-08T21:55:17.179Z,17.52
2023-10-08T21:57:48.918Z,17.57
2023-10-08T22:00:27.055Z,17.57
2023-10-08T22:02:59.054Z,17.87
2023-10-08T22:05:30.750Z,17.69
2023-10-08T22:07:58.889Z,17.47
2023-10-08T22:10:28.727Z,17.72
2023-10-08T22:12:55.246Z,17.67
2023-10-08T22:15:28.083Z,17.63
2023-10-08T22:17:56.598Z,17.60
2023-10-08T22:20:38.125Z,17.44
2023-10-08T22:23:07.424Z,17.92
2023-10-08T22:25:37.526Z,17.94
2023-10-08T22:28:12.301Z,17.51
2023-10-08T22:30:42.961Z,17.98
2023-10-08T22:33:11.776Z,17.96
2023-10-08T22:35:43.501Z,17.66
2023-10-08T22:38:18.133Z,17.59
2023-10-08T22:40:57.173Z,17.41
2023-10-08T22:43:24.050Z,17.35
2023-10-08T22:45:51.988Z,17.60
2023-10-08T22:48:30.692Z,17.55
2023-10-08T22:50:57.888Z,17.37
2023-10-08T22:53:26.433Z,17.51
2023-10-08T22:55:53.216Z,17.32
2023-10-08T22:58:19.589Z,17.39
2023-10-08T23:00:50.644Z,17.19
2023-10-08T23:03:23.019Z,17.64
2023-10-08T23:05:52.847Z,18.14
2023-10-08T23:08:23.827Z,18.03
2023-10-08T23:10:55.124Z,18.12
2023-10-08T23:13:22.852Z,17.99
2023-10-08T23:15:55.036Z,18.26
2023-10-08T23:18:24.805Z,18.00
2023-10-08T23:20:51.517Z,17.63
2023-10-08T23:23:21.203Z,17.71
2023-10-08T23:25:48.373Z,17.48
2023-10-08T23:28:14.758Z,17.66
2023-10-08T23:30:41.447Z,17.44
2023-10-08T23:33:09.388Z,17.46
2023-10-08T23:35:41.346Z,17.67
2023-10-08T23:38:09.546Z,17.54
2023-10-08T23:40:45.574Z,17.58
2023-10-08T23:45:56.616Z,17.09
2023-10-08T23:48:23.846Z,17.06
2023-10-08T23:50:54.750Z,17.46
2023-10-08T23:53:31.367Z,17.66
2023-10-08T23:56:01.978Z,17.55
2023-10-08T23:58:36.781Z,17.35
